sensor_id;sensor_type;location;lat;lon;timestamp;temperature;humidity
80192;SHT31;69513;51.990;5.704;2023-06-14T00:00:22;21.4;40.8
80192;SHT31;69513;51.990;5.704;2023-06-14T00:02:54;21.4;43.2
80192;SHT31;69513;51.990;5.704;2023-06-14T00:05:24;21.3;43.3
80192;SHT31;69513;51.990;5.704;2023-06-14T00:07:56;21.3;44.5
80192;SHT31;69513;51.990;5.704;2023-06-14T00:10:28;21.3;44.6
80192;SHT31;69513;51.990;5.704;2023-06-14T00:13:01;21.3;42.9
80192;SHT31;69513;51.990;5.704;2023-06-14T00:15:31;21.2;41.6
80192;SHT31;69513;51.990;5.704;2023-06-14T00:18:04;21.2;42.5
80192;SHT31;69513;51.990;5.704;2023-06-14T00:20:34;21.2;44.2
80192;SHT31;69513;51.990;5.704;2023-06-14T00:23:05;21.1;42.4
80192;SHT31;69513;51.990;5.704;2023-06-14T00:25:34;21.1;42.8
80192;SHT31;69513;51.990;5.704;2023-06-14T00:28:04;21.1;45.6
80192;SHT31;69513;51.990;5.704;2023-06-14T00:30:33;21.0;45.9
80192;SHT31;69513;51.990;5.704;2023-06-14T00:33:05;21.0;44.0
80192;SHT31;69513;51.990;5.704;2023-06-14T00:35:36;21.0;45.8
80192;SHT31;69513;51.990;5.704;2023-06-14T00:38:07;21.0;45.5
80192;SHT31;69513;51.990;5.704;2023-06-14T00:40:37;20.9;43.0
80192;SHT31;69513;51.990;5.704;2023-06-14T00:43:07;20.9;44.0
80192;SHT31;69513;51.990;5.704;2023-06-14T00:45:38;20.9;44.3
80192;SHT31;69513;51.990;5.704;2023-06-14T00:48:11;20.9;43.6
80192;SHT31;69513;51.990;5.704;2023-06-14T00:50:43;20.9;44.5
80192;SHT31;69513;51.990;5.704;2023-06-14T00:53:17;20.9;44.3
80192;SHT31;69513;51.990;5.704;2023-06-14T00:55:53;20.8;43.5
80192;SHT31;69513;51.990;5.704;2023-06-14T00:58:25;20.8;43.2
80192;SHT31;69513;51.990;5.704;2023-06-14T01:00:55;20.8;44.3
80192;SHT31;69513;51.990;5.704;2023-06-14T01:03:26;20.8;45.8
80192;SHT31;69513;51.990;5.704;2023-06-14T01:06:02;20.8;45.1
80192;SHT31;69513;51.990;5.704;2023-06-14T01:08:46;20.7;45.5
80192;SHT31;69513;51.990;5.704;2023-06-14T01:11:24;20.7;44.4
80192;SHT31;69513;51.990;5.704;2023-06-14T01:14:00;20.7;44.2
80192;SHT31;69513;51.990;5.704;2023-06-14T01:16:34;20.6;43.9
80192;SHT31;69513;51.990;5.704;2023-06-14T01:19:12;20.6;44.4
80192;SHT31;69513;51.990;5.704;2023-06-14T01:21:43;20.6;44.3
80192;SHT31;69513;51.990;5.704;2023-06-14T01:24:13;20.6;44.5
80192;SHT31;69513;51.990;5.704;2023-06-14T01:26:42;20.6;44.1
80192;SHT31;69513;51.990;5.704;2023-06-14T01:29:15;20.5;44.0
80192;SHT31;69513;51.990;5.704;2023-06-14T01:31:48;20.5;44.2
80192;SHT31;69513;51.990;5.704;2023-06-14T01:34:19;20.5;44.9
80192;SHT31;69513;51.990;5.704;2023-06-14T01:36:53;20.4;43.3
80192;SHT31;69513;51.990;5.704;2023-06-14T01:39:25;20.4;45.4
80192;SHT31;69513;51.990;5.704;2023-06-14T01:41:59;20.4;46.5
80192;SHT31;69513;51.990;5.704;2023-06-14T01:44:31;20.4;44.8
80192;SHT31;69513;51.990;5.704;2023-06-14T01:47:01;20.3;43.8
80192;SHT31;69513;51.990;5.704;2023-06-14T01:49:34;20.3;45.5
80192;SHT31;69513;51.990;5.704;2023-06-14T01:52:07;20.3;45.7
80192;SHT31;69513;51.990;5.704;2023-06-14T01:54:38;20.3;44.6
80192;SHT31;69513;51.990;5.704;2023-06-14T01:57:11;20.2;44.1
80192;SHT31;69513;51.990;5.704;2023-06-14T01:59:43;20.2;43.9
80192;SHT31;69513;51.990;5.704;2023-06-14T02:02:15;20.2;43.9
80192;SHT31;69513;51.990;5.704;2023-06-14T02:04:46;20.1;43.6
80192;SHT31;69513;51.990;5.704;2023-06-14T02:07:18;20.1;45.4
80192;SHT31;69513;51.990;5.704;2023-06-14T02:09:48;20.1;44.1
80192;SHT31;69513;51.990;5.704;2023-06-14T02:12:17;20.1;45.1
80192;SHT31;69513;51.990;5.704;2023-06-14T02:14:47;20.0;45.1
80192;SHT31;69513;51.990;5.704;2023-06-14T02:17:20;20.0;45.6
80192;SHT31;69513;51.990;5.704;2023-06-14T02:19:50;20.0;45.9
80192;SHT31;69513;51.990;5.704;2023-06-14T02:22:20;20.0;46.3
80192;SHT31;69513;51.990;5.704;2023-06-14T02:24:50;19.9;45.2
80192;SHT31;69513;51.990;5.704;2023-06-14T02:27:21;19.9;47.0
80192;SHT31;69513;51.990;5.704;2023-06-14T02:29:50;19.9;47.2
80192;SHT31;69513;51.990;5.704;2023-06-14T02:32:20;19.9;45.5
80192;SHT31;69513;51.990;5.704;2023-06-14T02:34:50;19.8;45.4
80192;SHT31;69513;51.990;5.704;2023-06-14T02:37:21;19.8;45.2
80192;SHT31;69513;51.990;5.704;2023-06-14T02:39:50;19.8;45.3
80192;SHT31;69513;51.990;5.704;2023-06-14T02:42:20;19.8;46.0
80192;SHT31;69513;51.990;5.704;2023-06-14T02:44:49;19.7;45.9
80192;SHT31;69513;51.990;5.704;2023-06-14T02:47:20;19.7;45.7
80192;SHT31;69513;51.990;5.704;2023-06-14T02:49:49;19.7;45.7
80192;SHT31;69513;51.990;5.704;2023-06-14T02:52:19;19.7;44.4
80192;SHT31;69513;51.990;5.704;2023-06-14T02:54:49;19.6;45.0
80192;SHT31;69513;51.990;5.704;2023-06-14T02:57:23;19.6;45.4
80192;SHT31;69513;51.990;5.704;2023-06-14T02:59:53;19.6;45.2
80192;SHT31;69513;51.990;5.704;2023-06-14T03:02:23;19.5;45.2
80192;SHT31;69513;51.990;5.704;2023-06-14T03:04:52;19.5;45.6
80192;SHT31;69513;51.990;5.704;2023-06-14T03:07:26;19.5;46.2
80192;SHT31;69513;51.990;5.704;2023-06-14T03:09:58;19.5;45.3
80192;SHT31;69513;51.990;5.704;2023-06-14T03:12:27;19.5;45.1
80192;SHT31;69513;51.990;5.704;2023-06-14T03:14:59;19.4;45.5
80192;SHT31;69513;51.990;5.704;2023-06-14T03:17:32;19.4;45.7
80192;SHT31;69513;51.990;5.704;2023-06-14T03:20:08;19.4;45.4
80192;SHT31;69513;51.990;5.704;2023-06-14T03:22:39;19.3;46.7
80192;SHT31;69513;51.990;5.704;2023-06-14T03:25:12;19.3;46.2
80192;SHT31;69513;51.990;5.704;2023-06-14T03:27:42;19.3;46.6
80192;SHT31;69513;51.990;5.704;2023-06-14T03:30:16;19.2;46.5
80192;SHT31;69513;51.990;5.704;2023-06-14T03:32:46;19.2;45.5
80192;SHT31;69513;51.990;5.704;2023-06-14T03:35:16;19.2;45.5
80192;SHT31;69513;51.990;5.704;2023-06-14T03:37:48;19.1;45.5
80192;SHT31;69513;51.990;5.704;2023-06-14T03:40:19;19.1;45.6
80192;SHT31;69513;51.990;5.704;2023-06-14T03:42:53;19.1;46.3
80192;SHT31;69513;51.990;5.704;2023-06-14T03:45:26;19.1;46.4
80192;SHT31;69513;51.990;5.704;2023-06-14T03:47:56;19.1;46.2
80192;SHT31;69513;51.990;5.704;2023-06-14T03:50:28;19.0;46.8
80192;SHT31;69513;51.990;5.704;2023-06-14T03:52:57;19.0;46.9
80192;SHT31;69513;51.990;5.704;2023-06-14T03:55:29;19.0;46.8
80192;SHT31;69513;51.990;5.704;2023-06-14T03:57:59;19.0;46.6
80192;SHT31;69513;51.990;5.704;2023-06-14T04:00:30;18.9;46.3
80192;SHT31;69513;51.990;5.704;2023-06-14T04:02:59;18.9;46.2
80192;SHT31;69513;51.990;5.704;2023-06-14T04:05:30;18.9;46.8
80192;SHT31;69513;51.990;5.704;2023-06-14T04:08:00;18.9;48.1
80192;SHT31;69513;51.990;5.704;2023-06-14T04:10:32;18.9;47.1
80192;SHT31;69513;51.990;5.704;2023-06-14T04:13:02;18.8;47.8
80192;SHT31;69513;51.990;5.704;2023-06-14T04:15:32;18.8;47.2
80192;SHT31;69513;51.990;5.704;2023-06-14T04:18:03;18.8;47.5
80192;SHT31;69513;51.990;5.704;2023-06-14T04:20:33;18.8;47.9
80192;SHT31;69513;51.990;5.704;2023-06-14T04:23:13;18.8;47.8
80192;SHT31;69513;51.990;5.704;2023-06-14T04:25:45;18.8;48.3
80192;SHT31;69513;51.990;5.704;2023-06-14T04:28:19;18.8;48.2
80192;SHT31;69513;51.990;5.704;2023-06-14T04:30:53;18.8;47.3
80192;SHT31;69513;51.990;5.704;2023-06-14T04:33:23;18.7;48.6
80192;SHT31;69513;51.990;5.704;2023-06-14T04:35:54;18.7;48.5
80192;SHT31;69513;51.990;5.704;2023-06-14T04:38:24;18.7;48.9
80192;SHT31;69513;51.990;5.704;2023-06-14T04:40:56;18.7;48.3
80192;SHT31;69513;51.990;5.704;2023-06-14T04:43:29;18.7;48.0
80192;SHT31;69513;51.990;5.704;2023-06-14T04:46:05;18.7;48.9
80192;SHT31;69513;51.990;5.704;2023-06-14T04:48:40;18.7;48.5
80192;SHT31;69513;51.990;5.704;2023-06-14T04:51:10;18.7;48.9
80192;SHT31;69513;51.990;5.704;2023-06-14T04:53:40;18.7;48.9
80192;SHT31;69513;51.990;5.704;2023-06-14T04:56:11;18.7;49.7
80192;SHT31;69513;51.990;5.704;2023-06-14T04:58:40;18.7;47.7
80192;SHT31;69513;51.990;5.704;2023-06-14T05:01:11;18.7;48.8
80192;SHT31;69513;51.990;5.704;2023-06-14T05:03:41;18.8;48.8
80192;SHT31;69513;51.990;5.704;2023-06-14T05:06:12;18.8;48.7
80192;SHT31;69513;51.990;5.704;2023-06-14T05:08:43;18.8;48.0
80192;SHT31;69513;51.990;5.704;2023-06-14T05:11:13;18.8;48.1
80192;SHT31;69513;51.990;5.704;2023-06-14T05:13:45;18.8;48.4
80192;SHT31;69513;51.990;5.704;2023-06-14T05:16:17;18.8;48.5
80192;SHT31;69513;51.990;5.704;2023-06-14T05:18:48;18.8;48.8
80192;SHT31;69513;51.990;5.704;2023-06-14T05:21:18;18.8;48.1
80192;SHT31;69513;51.990;5.704;2023-06-14T05:23:48;18.8;48.6
80192;SHT31;69513;51.990;5.704;2023-06-14T05:26:19;18.9;48.6
80192;SHT31;69513;51.990;5.704;2023-06-14T05:28:51;18.9;48.3
80192;SHT31;69513;51.990;5.704;2023-06-14T05:31:25;18.9;48.2
80192;SHT31;69513;51.990;5.704;2023-06-14T05:33:55;19.0;48.1
80192;SHT31;69513;51.990;5.704;2023-06-14T05:36:26;19.0;47.8
80192;SHT31;69513;51.990;5.704;2023-06-14T05:38:58;19.0;48.5
80192;SHT31;69513;51.990;5.704;2023-06-14T05:41:31;19.1;47.3
80192;SHT31;69513;51.990;5.704;2023-06-14T05:44:02;19.1;46.6
80192;SHT31;69513;51.990;5.704;2023-06-14T05:46:34;19.1;46.9
80192;SHT31;69513;51.990;5.704;2023-06-14T05:49:07;19.1;47.1
80192;SHT31;69513;51.990;5.704;2023-06-14T05:51:39;19.2;47.2
80192;SHT31;69513;51.990;5.704;2023-06-14T05:54:09;19.2;46.3
80192;SHT31;69513;51.990;5.704;2023-06-14T05:56:38;19.2;46.6
80192;SHT31;69513;51.990;5.704;2023-06-14T05:59:08;19.3;47.1
80192;SHT31;69513;51.990;5.704;2023-06-14T06:01:37;19.3;47.3
80192;SHT31;69513;51.990;5.704;2023-06-14T06:04:08;19.4;46.7
80192;SHT31;69513;51.990;5.704;2023-06-14T06:06:37;19.4;47.1
80192;SHT31;69513;51.990;5.704;2023-06-14T06:09:08;19.5;46.7
80192;SHT31;69513;51.990;5.704;2023-06-14T06:11:38;19.5;46.0
80192;SHT31;69513;51.990;5.704;2023-06-14T06:14:07;19.6;45.8
80192;SHT31;69513;51.990;5.704;2023-06-14T06:16:37;19.6;46.3
80192;SHT31;69513;51.990;5.704;2023-06-14T06:19:08;19.6;46.4
80192;SHT31;69513;51.990;5.704;2023-06-14T06:21:38;19.7;46.4
80192;SHT31;69513;51.990;5.704;2023-06-14T06:24:09;19.8;46.2
80192;SHT31;69513;51.990;5.704;2023-06-14T06:26:39;19.8;45.6
80192;SHT31;69513;51.990;5.704;2023-06-14T06:29:09;19.9;45.4
80192;SHT31;69513;51.990;5.704;2023-06-14T06:31:39;19.9;45.2
80192;SHT31;69513;51.990;5.704;2023-06-14T06:34:09;20.0;45.5
80192;SHT31;69513;51.990;5.704;2023-06-14T06:36:39;20.0;45.8
80192;SHT31;69513;51.990;5.704;2023-06-14T06:39:10;20.1;45.3
80192;SHT31;69513;51.990;5.704;2023-06-14T06:41:44;20.1;45.0
80192;SHT31;69513;51.990;5.704;2023-06-14T06:44:16;20.2;45.2
80192;SHT31;69513;51.990;5.704;2023-06-14T06:46:45;20.3;44.6
80192;SHT31;69513;51.990;5.704;2023-06-14T06:49:15;20.3;44.5
80192;SHT31;69513;51.990;5.704;2023-06-14T06:52:01;20.4;44.7
80192;SHT31;69513;51.990;5.704;2023-06-14T06:54:33;20.4;45.1
80192;SHT31;69513;51.990;5.704;2023-06-14T06:57:05;20.5;45.1
80192;SHT31;69513;51.990;5.704;2023-06-14T06:59:36;20.5;44.3
80192;SHT31;69513;51.990;5.704;2023-06-14T07:02:08;20.6;45.2
80192;SHT31;69513;51.990;5.704;2023-06-14T07:04:38;20.7;43.9
80192;SHT31;69513;51.990;5.704;2023-06-14T07:07:07;20.7;43.4
80192;SHT31;69513;51.990;5.704;2023-06-14T07:09:38;20.8;43.4
80192;SHT31;69513;51.990;5.704;2023-06-14T07:12:10;20.8;42.8
80192;SHT31;69513;51.990;5.704;2023-06-14T07:14:40;20.9;43.5
80192;SHT31;69513;51.990;5.704;2023-06-14T07:17:10;20.9;43.2
80192;SHT31;69513;51.990;5.704;2023-06-14T07:19:39;21.0;42.4
80192;SHT31;69513;51.990;5.704;2023-06-14T07:22:09;21.0;42.2
80192;SHT31;69513;51.990;5.704;2023-06-14T07:24:39;21.1;41.7
80192;SHT31;69513;51.990;5.704;2023-06-14T07:27:09;21.1;41.9
80192;SHT31;69513;51.990;5.704;2023-06-14T07:29:41;21.2;41.2
80192;SHT31;69513;51.990;5.704;2023-06-14T07:32:11;21.2;41.7
80192;SHT31;69513;51.990;5.704;2023-06-14T07:34:40;21.3;42.4
80192;SHT31;69513;51.990;5.704;2023-06-14T07:37:11;21.4;41.4
80192;SHT31;69513;51.990;5.704;2023-06-14T07:39:41;21.4;40.9
80192;SHT31;69513;51.990;5.704;2023-06-14T07:42:11;21.5;41.4
80192;SHT31;69513;51.990;5.704;2023-06-14T07:44:40;21.5;41.4
80192;SHT31;69513;51.990;5.704;2023-06-14T07:47:11;21.6;40.1
80192;SHT31;69513;51.990;5.704;2023-06-14T07:49:41;21.6;41.3
80192;SHT31;69513;51.990;5.704;2023-06-14T07:52:11;21.7;40.0
80192;SHT31;69513;51.990;5.704;2023-06-14T07:54:41;21.7;40.1
80192;SHT31;69513;51.990;5.704;2023-06-14T07:57:11;21.8;40.3
80192;SHT31;69513;51.990;5.704;2023-06-14T07:59:40;21.8;40.0
80192;SHT31;69513;51.990;5.704;2023-06-14T08:02:10;21.9;39.9
80192;SHT31;69513;51.990;5.704;2023-06-14T08:04:39;21.9;39.2
80192;SHT31;69513;51.990;5.704;2023-06-14T08:07:10;22.0;40.2
80192;SHT31;69513;51.990;5.704;2023-06-14T08:09:40;22.0;40.4
80192;SHT31;69513;51.990;5.704;2023-06-14T08:12:13;22.1;39.8
80192;SHT31;69513;51.990;5.704;2023-06-14T08:14:43;22.1;39.4
80192;SHT31;69513;51.990;5.704;2023-06-14T08:17:13;22.2;38.5
80192;SHT31;69513;51.990;5.704;2023-06-14T08:19:42;22.2;38.6
80192;SHT31;69513;51.990;5.704;2023-06-14T08:22:13;22.3;38.9
80192;SHT31;69513;51.990;5.704;2023-06-14T08:24:47;22.3;38.8
80192;SHT31;69513;51.990;5.704;2023-06-14T08:27:17;22.4;37.5
80192;SHT31;69513;51.990;5.704;2023-06-14T08:29:46;22.4;37.9
80192;SHT31;69513;51.990;5.704;2023-06-14T08:32:16;22.5;37.3
80192;SHT31;69513;51.990;5.704;2023-06-14T08:34:45;22.5;37.5
80192;SHT31;69513;51.990;5.704;2023-06-14T08:37:15;22.6;37.4
80192;SHT31;69513;51.990;5.704;2023-06-14T08:39:44;22.6;36.7
80192;SHT31;69513;51.990;5.704;2023-06-14T08:42:14;22.7;37.5
80192;SHT31;69513;51.990;5.704;2023-06-14T08:44:45;22.7;36.9
80192;SHT31;69513;51.990;5.704;2023-06-14T08:47:15;22.8;37.3
80192;SHT31;69513;51.990;5.704;2023-06-14T08:49:49;22.8;36.6
80192;SHT31;69513;51.990;5.704;2023-06-14T08:52:22;22.9;36.7
80192;SHT31;69513;51.990;5.704;2023-06-14T08:54:53;22.9;36.2
80192;SHT31;69513;51.990;5.704;2023-06-14T08:57:25;23.0;35.9
80192;SHT31;69513;51.990;5.704;2023-06-14T08:59:59;23.0;34.8
80192;SHT31;69513;51.990;5.704;2023-06-14T09:02:37;23.0;34.6
80192;SHT31;69513;51.990;5.704;2023-06-14T09:05:13;23.1;34.8
80192;SHT31;69513;51.990;5.704;2023-06-14T09:07:46;23.1;35.1
80192;SHT31;69513;51.990;5.704;2023-06-14T09:10:17;23.2;35.2
80192;SHT31;69513;51.990;5.704;2023-06-14T09:12:47;23.2;35.4
80192;SHT31;69513;51.990;5.704;2023-06-14T09:15:20;23.3;33.7
80192;SHT31;69513;51.990;5.704;2023-06-14T09:17:50;23.3;33.0
80192;SHT31;69513;51.990;5.704;2023-06-14T09:20:21;23.4;33.5
80192;SHT31;69513;51.990;5.704;2023-06-14T09:22:53;23.4;33.2
80192;SHT31;69513;51.990;5.704;2023-06-14T09:25:24;23.5;32.6
80192;SHT31;69513;51.990;5.704;2023-06-14T09:27:54;23.5;34.0
80192;SHT31;69513;51.990;5.704;2023-06-14T09:30:24;23.6;32.4
80192;SHT31;69513;51.990;5.704;2023-06-14T09:32:54;23.6;33.4
80192;SHT31;69513;51.990;5.704;2023-06-14T09:35:24;23.7;33.0
80192;SHT31;69513;51.990;5.704;2023-06-14T09:37:56;23.7;33.6
80192;SHT31;69513;51.990;5.704;2023-06-14T09:40:26;23.8;33.0
80192;SHT31;69513;51.990;5.704;2023-06-14T09:43:00;23.8;32.5
80192;SHT31;69513;51.990;5.704;2023-06-14T09:45:29;23.9;33.5
80192;SHT31;69513;51.990;5.704;2023-06-14T09:48:00;24.0;34.6
80192;SHT31;69513;51.990;5.704;2023-06-14T09:50:30;24.0;30.8
80192;SHT31;69513;51.990;5.704;2023-06-14T09:53:05;24.1;32.4
80192;SHT31;69513;51.990;5.704;2023-06-14T09:55:40;24.1;32.0
80192;SHT31;69513;51.990;5.704;2023-06-14T09:58:16;24.2;33.0
80192;SHT31;69513;51.990;5.704;2023-06-14T10:00:51;24.3;33.4
80192;SHT31;69513;51.990;5.704;2023-06-14T10:03:27;24.3;33.0
80192;SHT31;69513;51.990;5.704;2023-06-14T10:06:03;24.4;33.2
80192;SHT31;69513;51.990;5.704;2023-06-14T10:08:37;24.5;32.4
80192;SHT31;69513;51.990;5.704;2023-06-14T10:11:08;24.5;32.8
80192;SHT31;69513;51.990;5.704;2023-06-14T10:13:39;24.6;32.7
80192;SHT31;69513;51.990;5.704;2023-06-14T10:16:15;24.7;31.6
80192;SHT31;69513;51.990;5.704;2023-06-14T10:18:51;24.7;32.5
80192;SHT31;69513;51.990;5.704;2023-06-14T10:21:32;24.8;32.3
80192;SHT31;69513;51.990;5.704;2023-06-14T10:24:07;24.9;32.5
80192;SHT31;69513;51.990;5.704;2023-06-14T10:26:56;24.9;32.7
80192;SHT31;69513;51.990;5.704;2023-06-14T10:29:29;25.0;32.6
80192;SHT31;69513;51.990;5.704;2023-06-14T10:32:01;25.1;32.1
80192;SHT31;69513;51.990;5.704;2023-06-14T10:34:31;25.2;32.1
80192;SHT31;69513;51.990;5.704;2023-06-14T10:37:06;25.2;33.1
80192;SHT31;69513;51.990;5.704;2023-06-14T10:39:42;25.3;31.7
80192;SHT31;69513;51.990;5.704;2023-06-14T10:42:14;25.4;30.5
80192;SHT31;69513;51.990;5.704;2023-06-14T10:44:50;25.4;31.4
80192;SHT31;69513;51.990;5.704;2023-06-14T10:47:26;25.5;31.7
80192;SHT31;69513;51.990;5.704;2023-06-14T10:50:02;25.5;31.0
80192;SHT31;69513;51.990;5.704;2023-06-14T10:52:38;25.6;31.3
80192;SHT31;69513;51.990;5.704;2023-06-14T10:55:12;25.7;31.2
80192;SHT31;69513;51.990;5.704;2023-06-14T10:57:47;25.7;30.9
80192;SHT31;69513;51.990;5.704;2023-06-14T11:00:22;25.8;31.0
80192;SHT31;69513;51.990;5.704;2023-06-14T11:05:10;25.9;32.4
80192;SHT31;69513;51.990;5.704;2023-06-14T11:07:58;26.1;30.7
80192;SHT31;69513;51.990;5.704;2023-06-14T11:10:36;26.2;31.2
80192;SHT31;69513;51.990;5.704;2023-06-14T11:13:08;26.2;30.5
80192;SHT31;69513;51.990;5.704;2023-06-14T11:15:47;26.3;30.6
80192;SHT31;69513;51.990;5.704;2023-06-14T11:18:23;26.4;30.5
80192;SHT31;69513;51.990;5.704;2023-06-14T11:20:55;26.5;29.6
80192;SHT31;69513;51.990;5.704;2023-06-14T11:23:27;26.6;29.5
80192;SHT31;69513;51.990;5.704;2023-06-14T11:25:59;26.7;28.9
80192;SHT31;69513;51.990;5.704;2023-06-14T11:28:41;26.8;29.1
80192;SHT31;69513;51.990;5.704;2023-06-14T11:31:13;26.8;28.5
80192;SHT31;69513;51.990;5.704;2023-06-14T11:33:51;26.9;28.5
80192;SHT31;69513;51.990;5.704;2023-06-14T11:36:27;27.0;29.0
80192;SHT31;69513;51.990;5.704;2023-06-14T11:39:03;27.1;29.0
80192;SHT31;69513;51.990;5.704;2023-06-14T11:41:37;27.2;29.7
80192;SHT31;69513;51.990;5.704;2023-06-14T11:44:08;27.3;28.8
80192;SHT31;69513;51.990;5.704;2023-06-14T11:46:39;27.4;29.9
80192;SHT31;69513;51.990;5.704;2023-06-14T11:49:10;27.5;29.0
80192;SHT31;69513;51.990;5.704;2023-06-14T11:51:45;27.6;28.6
80192;SHT31;69513;51.990;5.704;2023-06-14T11:54:15;27.7;27.7
80192;SHT31;69513;51.990;5.704;2023-06-14T11:56:46;27.8;27.4
80192;SHT31;69513;51.990;5.704;2023-06-14T11:59:17;27.9;29.0
80192;SHT31;69513;51.990;5.704;2023-06-14T12:01:49;28.0;29.1
80192;SHT31;69513;51.990;5.704;2023-06-14T12:04:27;28.1;29.4
80192;SHT31;69513;51.990;5.704;2023-06-14T12:06:57;28.2;28.6
80192;SHT31;69513;51.990;5.704;2023-06-14T12:09:37;28.3;28.4
80192;SHT31;69513;51.990;5.704;2023-06-14T12:12:11;28.4;27.7
80192;SHT31;69513;51.990;5.704;2023-06-14T12:14:45;28.5;27.7
80192;SHT31;69513;51.990;5.704;2023-06-14T12:17:19;28.6;27.1
80192;SHT31;69513;51.990;5.704;2023-06-14T12:19:50;28.7;28.4
80192;SHT31;69513;51.990;5.704;2023-06-14T12:22:20;28.7;28.4
80192;SHT31;69513;51.990;5.704;2023-06-14T12:24:52;28.8;28.4
80192;SHT31;69513;51.990;5.704;2023-06-14T12:27:23;28.9;27.6
80192;SHT31;69513;51.990;5.704;2023-06-14T12:30:04;28.9;28.0
80192;SHT31;69513;51.990;5.704;2023-06-14T12:32:35;29.0;27.4
80192;SHT31;69513;51.990;5.704;2023-06-14T12:35:07;29.0;27.3
80192;SHT31;69513;51.990;5.704;2023-06-14T12:37:36;29.0;29.1
80192;SHT31;69513;51.990;5.704;2023-06-14T12:40:10;29.1;28.5
80192;SHT31;69513;51.990;5.704;2023-06-14T12:42:44;29.2;28.5
80192;SHT31;69513;51.990;5.704;2023-06-14T12:45:15;29.3;27.6
80192;SHT31;69513;51.990;5.704;2023-06-14T12:47:46;29.4;28.0
80192;SHT31;69513;51.990;5.704;2023-06-14T12:50:15;29.5;25.7
80192;SHT31;69513;51.990;5.704;2023-06-14T12:52:45;29.6;26.8
80192;SHT31;69513;51.990;5.704;2023-06-14T12:55:16;29.7;27.8
80192;SHT31;69513;51.990;5.704;2023-06-14T12:57:48;29.8;27.4
80192;SHT31;69513;51.990;5.704;2023-06-14T13:00:22;29.9;28.0
80192;SHT31;69513;51.990;5.704;2023-06-14T13:02:53;30.0;25.7
80192;SHT31;69513;51.990;5.704;2023-06-14T13:05:24;30.1;26.8
80192;SHT31;69513;51.990;5.704;2023-06-14T13:07:54;30.2;26.6
80192;SHT31;69513;51.990;5.704;2023-06-14T13:10:24;30.3;27.3
80192;SHT31;69513;51.990;5.704;2023-06-14T13:12:55;30.4;26.7
80192;SHT31;69513;51.990;5.704;2023-06-14T13:15:25;30.5;26.5
80192;SHT31;69513;51.990;5.704;2023-06-14T13:17:55;30.6;25.8
80192;SHT31;69513;51.990;5.704;2023-06-14T13:20:27;30.8;25.5
80192;SHT31;69513;51.990;5.704;2023-06-14T13:22:56;30.8;26.0
80192;SHT31;69513;51.990;5.704;2023-06-14T13:25:28;30.9;25.7
80192;SHT31;69513;51.990;5.704;2023-06-14T13:27:57;31.0;27.3
80192;SHT31;69513;51.990;5.704;2023-06-14T13:30:27;31.1;25.1
80192;SHT31;69513;51.990;5.704;2023-06-14T13:32:58;31.2;25.8
80192;SHT31;69513;51.990;5.704;2023-06-14T13:35:30;31.3;26.2
80192;SHT31;69513;51.990;5.704;2023-06-14T13:38:00;31.4;25.9
80192;SHT31;69513;51.990;5.704;2023-06-14T13:40:32;31.6;26.0
80192;SHT31;69513;51.990;5.704;2023-06-14T13:43:01;31.8;25.4
80192;SHT31;69513;51.990;5.704;2023-06-14T13:45:32;32.0;23.9
80192;SHT31;69513;51.990;5.704;2023-06-14T13:48:04;32.1;24.8
80192;SHT31;69513;51.990;5.704;2023-06-14T13:50:34;32.3;24.0
80192;SHT31;69513;51.990;5.704;2023-06-14T13:53:04;32.4;23.9
80192;SHT31;69513;51.990;5.704;2023-06-14T13:55:33;32.6;24.1
80192;SHT31;69513;51.990;5.704;2023-06-14T13:58:04;32.7;22.0
80192;SHT31;69513;51.990;5.704;2023-06-14T14:00:33;32.8;22.6
80192;SHT31;69513;51.990;5.704;2023-06-14T14:03:08;32.9;24.2
80192;SHT31;69513;51.990;5.704;2023-06-14T14:05:39;33.0;23.4
80192;SHT31;69513;51.990;5.704;2023-06-14T14:08:10;33.2;23.6
80192;SHT31;69513;51.990;5.704;2023-06-14T14:10:40;33.3;21.6
80192;SHT31;69513;51.990;5.704;2023-06-14T14:13:12;33.4;21.3
80192;SHT31;69513;51.990;5.704;2023-06-14T14:15:42;33.6;22.0
80192;SHT31;69513;51.990;5.704;2023-06-14T14:18:12;33.7;22.9
80192;SHT31;69513;51.990;5.704;2023-06-14T14:20:42;33.8;21.5
80192;SHT31;69513;51.990;5.704;2023-06-14T14:23:13;33.9;22.7
80192;SHT31;69513;51.990;5.704;2023-06-14T14:25:45;34.0;21.6
80192;SHT31;69513;51.990;5.704;2023-06-14T14:28:15;34.1;22.0
80192;SHT31;69513;51.990;5.704;2023-06-14T14:30:49;34.2;23.3
80192;SHT31;69513;51.990;5.704;2023-06-14T14:33:23;34.3;22.4
80192;SHT31;69513;51.990;5.704;2023-06-14T14:35:52;34.4;21.7
80192;SHT31;69513;51.990;5.704;2023-06-14T14:38:24;34.5;21.6
80192;SHT31;69513;51.990;5.704;2023-06-14T14:40:57;34.5;22.3
80192;SHT31;69513;51.990;5.704;2023-06-14T14:43:26;34.5;21.7
80192;SHT31;69513;51.990;5.704;2023-06-14T14:45:58;34.5;21.3
80192;SHT31;69513;51.990;5.704;2023-06-14T14:48:28;34.6;21.2
80192;SHT31;69513;51.990;5.704;2023-06-14T14:50:59;34.7;20.7
80192;SHT31;69513;51.990;5.704;2023-06-14T14:53:29;34.7;21.4
80192;SHT31;69513;51.990;5.704;2023-06-14T14:56:00;34.8;20.2
80192;SHT31;69513;51.990;5.704;2023-06-14T14:58:29;34.9;20.5
80192;SHT31;69513;51.990;5.704;2023-06-14T15:00:59;35.0;21.8
80192;SHT31;69513;51.990;5.704;2023-06-14T15:03:28;35.2;20.3
80192;SHT31;69513;51.990;5.704;2023-06-14T15:05:58;35.3;20.8
80192;SHT31;69513;51.990;5.704;2023-06-14T15:08:27;35.4;20.4
80192;SHT31;69513;51.990;5.704;2023-06-14T15:10:57;35.5;19.7
80192;SHT31;69513;51.990;5.704;2023-06-14T15:13:26;35.7;19.2
80192;SHT31;69513;51.990;5.704;2023-06-14T15:15:56;35.8;20.1
80192;SHT31;69513;51.990;5.704;2023-06-14T15:18:26;35.8;19.7
80192;SHT31;69513;51.990;5.704;2023-06-14T15:20:55;35.9;19.8
80192;SHT31;69513;51.990;5.704;2023-06-14T15:23:26;36.0;20.4
80192;SHT31;69513;51.990;5.704;2023-06-14T15:25:56;36.0;19.0
80192;SHT31;69513;51.990;5.704;2023-06-14T15:28:27;35.9;19.7
80192;SHT31;69513;51.990;5.704;2023-06-14T15:31:00;35.5;19.8
80192;SHT31;69513;51.990;5.704;2023-06-14T15:33:31;35.1;19.9
80192;SHT31;69513;51.990;5.704;2023-06-14T15:36:00;34.6;19.9
80192;SHT31;69513;51.990;5.704;2023-06-14T15:38:31;34.2;20.5
80192;SHT31;69513;51.990;5.704;2023-06-14T15:41:01;33.9;21.6
80192;SHT31;69513;51.990;5.704;2023-06-14T15:43:32;33.8;22.7
80192;SHT31;69513;51.990;5.704;2023-06-14T15:46:01;33.7;21.6
80192;SHT31;69513;51.990;5.704;2023-06-14T15:48:31;33.7;21.3
80192;SHT31;69513;51.990;5.704;2023-06-14T15:51:00;33.8;21.6
80192;SHT31;69513;51.990;5.704;2023-06-14T15:53:31;33.8;21.8
80192;SHT31;69513;51.990;5.704;2023-06-14T15:56:01;33.8;20.5
80192;SHT31;69513;51.990;5.704;2023-06-14T15:58:31;33.6;20.9
80192;SHT31;69513;51.990;5.704;2023-06-14T16:01:00;33.3;21.5
80192;SHT31;69513;51.990;5.704;2023-06-14T16:03:30;33.0;21.4
80192;SHT31;69513;51.990;5.704;2023-06-14T16:05:59;32.7;22.8
80192;SHT31;69513;51.990;5.704;2023-06-14T16:08:29;32.4;23.4
80192;SHT31;69513;51.990;5.704;2023-06-14T16:10:58;32.2;23.0
80192;SHT31;69513;51.990;5.704;2023-06-14T16:13:28;32.0;23.1
80192;SHT31;69513;51.990;5.704;2023-06-14T16:15:58;31.7;24.3
80192;SHT31;69513;51.990;5.704;2023-06-14T16:18:27;31.5;24.0
80192;SHT31;69513;51.990;5.704;2023-06-14T16:20:57;31.3;24.0
80192;SHT31;69513;51.990;5.704;2023-06-14T16:23:26;31.2;24.5
80192;SHT31;69513;51.990;5.704;2023-06-14T16:25:56;31.1;23.7
80192;SHT31;69513;51.990;5.704;2023-06-14T16:28:26;31.0;24.0
80192;SHT31;69513;51.990;5.704;2023-06-14T16:30:56;30.9;25.1